Time;durP1;ratioP1;P1;durP2;ratioP2;P2;SDS_P1;SDS_P2;PMS_P1;PMS_P2;Temp;Humidity;BMP_temperature;BMP_pressure;BME280_temperature;BME280_humidity;BME280_pressure;Samples;Min_cycle;Max_cycle;Signal;HPM_P1;HPM_P2
2023/04/13 00:02:00;;;;;;;6.30;4.90;;;;;;;;;;107611;285;45883;-30
2023/04/13 00:04:37;;;;;;;6.30;4.90;;;;;;;;;;107622;283;39729;-30
2023/04/13 00:07:15;;;;;;;6.10;5.00;;;;;;;;;;107605;283;44078;-30
2023/04/13 00:09:51;;;;;;;6.20;5.00;;;;;;;;;;107636;283;42200;-30
2023/04/13 00:12:27;;;;;;;6.50;5.30;;;;;;;;;;107634;283;45985;-30
2023/04/13 00:15:02;;;;;;;6.60;5.10;;;;;;;;;;107620;283;39695;-30
2023/04/13 00:17:36;;;;;;;6.30;5.00;;;;;;;;;;107623;283;42942;-30
2023/04/13 00:20:13;;;;;;;6.50;4.80;;;;;;;;;;107599;282;42276;-30
2023/04/13 00:22:50;;;;;;;6.40;4.80;;;;;;;;;;107652;283;45011;-30
2023/04/13 00:25:26;;;;;;;6.70;4.80;;;;;;;;;;107630;290;41033;-30
2023/04/13 00:28:02;;;;;;;6.00;4.90;;;;;;;;;;107616;285;44477;-30
2023/04/13 00:30:38;;;;;;;6.70;5.00;;;;;;;;;;107575;283;41931;-30
2023/04/13 00:33:16;;;;;;;6.60;5.20;;;;;;;;;;107543;285;175698;-30
2023/04/13 00:35:50;;;;;;;6.10;4.70;;;;;;;;;;107655;283;41001;-30
2023/04/13 00:38:28;;;;;;;6.00;4.90;;;;;;;;;;107624;283;44104;-30
2023/04/13 00:41:02;;;;;;;6.10;5.00;;;;;;;;;;107586;285;43379;-30
2023/04/13 00:43:36;;;;;;;6.20;4.60;;;;;;;;;;107635;283;39512;-30
2023/04/13 00:46:15;;;;;;;6.30;4.80;;;;;;;;;;107629;285;39693;-30
2023/04/13 00:48:51;;;;;;;6.60;4.90;;;;;;;;;;107627;285;43185;-30
2023/04/13 00:51:28;;;;;;;6.60;4.90;;;;;;;;;;107493;285;175716;-30
2023/04/13 00:54:03;;;;;;;5.80;4.50;;;;;;;;;;107629;285;39916;-30
2023/04/13 00:56:36;;;;;;;6.00;4.60;;;;;;;;;;107639;277;39986;-30
2023/04/13 00:59:17;;;;;;;6.40;4.60;;;;;;;;;;107602;283;43031;-30
2023/04/13 01:01:55;;;;;;;5.90;4.60;;;;;;;;;;107581;286;42445;-30
2023/04/13 01:04:33;;;;;;;6.80;4.70;;;;;;;;;;107615;283;38876;-30
2023/04/13 01:07:19;;;;;;;6.20;5.00;;;;;;;;;;107644;285;39734;-30
2023/04/13 01:10:05;;;;;;;6.10;4.70;;;;;;;;;;107623;285;45272;-30
2023/04/13 01:12:49;;;;;;;6.20;4.60;;;;;;;;;;107595;285;41947;-30
2023/04/13 01:15:26;;;;;;;5.70;4.50;;;;;;;;;;107643;277;38827;-30
2023/04/13 01:18:06;;;;;;;5.90;4.60;;;;;;;;;;107610;285;39743;-31
2023/04/13 01:20:46;;;;;;;5.80;4.70;;;;;;;;;;107616;283;42657;-31
2023/04/13 01:23:34;;;;;;;6.00;4.50;;;;;;;;;;107557;277;42267;-31
2023/04/13 01:26:09;;;;;;;5.50;4.50;;;;;;;;;;107616;282;38777;-31
2023/04/13 01:28:43;;;;;;;5.40;4.30;;;;;;;;;;107628;285;40070;-31
2023/04/13 01:31:20;;;;;;;5.90;4.40;;;;;;;;;;107639;277;42902;-31
2023/04/13 01:33:55;;;;;;;5.60;4.40;;;;;;;;;;107600;277;42276;-31
2023/04/13 01:36:32;;;;;;;6.10;4.70;;;;;;;;;;107516;277;175701;-30
2023/04/13 01:39:09;;;;;;;5.90;4.50;;;;;;;;;;107136;283;544405;-30
2023/04/13 01:41:45;;;;;;;6.10;4.70;;;;;;;;;;107563;282;43001;-30
2023/04/13 01:44:20;;;;;;;6.10;4.60;;;;;;;;;;107586;282;49221;-30
2023/04/13 01:47:03;;;;;;;5.90;4.70;;;;;;;;;;107620;285;38815;-30
2023/04/13 01:49:40;;;;;;;5.60;4.30;;;;;;;;;;107653;283;39723;-30
2023/04/13 01:52:15;;;;;;;5.60;4.20;;;;;;;;;;107593;290;42897;-30
2023/04/13 01:54:52;;;;;;;5.40;4.30;;;;;;;;;;107628;285;48797;-30
2023/04/13 01:57:27;;;;;;;5.70;4.30;;;;;;;;;;107616;285;38916;-30
2023/04/13 02:00:13;;;;;;;6.10;4.40;;;;;;;;;;107610;285;40050;-30
2023/04/13 02:02:48;;;;;;;6.10;4.40;;;;;;;;;;107555;283;42869;-30
2023/04/13 02:05:26;;;;;;;6.70;4.30;;;;;;;;;;107613;283;43506;-30
2023/04/13 02:08:02;;;;;;;6.60;4.40;;;;;;;;;;107590;285;39064;-30
2023/04/13 02:10:38;;;;;;;5.50;4.00;;;;;;;;;;107616;285;39694;-30
2023/04/13 02:13:17;;;;;;;5.50;4.10;;;;;;;;;;107604;285;43287;-30
2023/04/13 02:15:51;;;;;;;5.60;4.30;;;;;;;;;;107593;285;44148;-30
2023/04/13 02:18:26;;;;;;;5.50;4.30;;;;;;;;;;107595;285;40096;-30
2023/04/13 02:21:08;;;;;;;5.30;4.10;;;;;;;;;;107679;283;39867;-30
2023/04/13 02:23:46;;;;;;;5.50;4.40;;;;;;;;;;107610;285;44189;-31
2023/04/13 02:26:26;;;;;;;5.80;4.30;;;;;;;;;;107486;285;175773;-31
2023/04/13 02:29:02;;;;;;;5.20;4.00;;;;;;;;;;107575;283;40874;-31
2023/04/13 02:31:42;;;;;;;5.20;4.20;;;;;;;;;;107627;283;39699;-30
2023/04/13 02:34:17;;;;;;;5.40;4.20;;;;;;;;;;107604;277;43103;-30
2023/04/13 02:36:54;;;;;;;5.70;4.20;;;;;;;;;;107613;285;44274;-30
2023/04/13 02:39:31;;;;;;;5.50;4.20;;;;;;;;;;107625;283;38813;-30
2023/04/13 02:42:06;;;;;;;5.60;4.20;;;;;;;;;;107662;277;40108;-30
2023/04/13 02:44:41;;;;;;;5.70;4.20;;;;;;;;;;107602;282;43042;-30
2023/04/13 02:47:17;;;;;;;5.40;4.20;;;;;;;;;;107527;283;175711;-30
2023/04/13 02:49:51;;;;;;;5.40;4.20;;;;;;;;;;107629;285;38925;-30
2023/04/13 02:52:27;;;;;;;5.90;4.20;;;;;;;;;;107640;285;40120;-30
2023/04/13 02:55:01;;;;;;;5.70;4.50;;;;;;;;;;107579;277;42914;-30
2023/04/13 02:57:35;;;;;;;5.40;4.40;;;;;;;;;;107589;285;42236;-30
2023/04/13 03:00:12;;;;;;;5.70;4.20;;;;;;;;;;107629;283;38765;-30
2023/04/13 03:02:47;;;;;;;5.80;4.30;;;;;;;;;;107641;285;40043;-30
2023/04/13 03:05:23;;;;;;;6.00;4.60;;;;;;;;;;107566;282;43147;-30
2023/04/13 03:08:01;;;;;;;5.50;4.30;;;;;;;;;;107595;283;42317;-30
2023/04/13 03:10:37;;;;;;;7.00;4.70;;;;;;;;;;107604;282;39057;-30
2023/04/13 03:13:11;;;;;;;6.40;4.70;;;;;;;;;;107492;283;175718;-30
2023/04/13 03:15:46;;;;;;;6.20;4.50;;;;;;;;;;107583;285;43267;-30
2023/04/13 03:18:22;;;;;;;6.50;4.50;;;;;;;;;;107646;282;42183;-30
2023/04/13 03:20:56;;;;;;;7.30;5.00;;;;;;;;;;107652;283;38780;-30
2023/04/13 03:23:32;;;;;;;6.60;4.90;;;;;;;;;;107628;285;39796;-30
2023/04/13 03:26:08;;;;;;;6.20;5.00;;;;;;;;;;107588;285;42858;-30
2023/04/13 03:28:41;;;;;;;7.30;5.20;;;;;;;;;;107639;283;42117;-30
2023/04/13 03:31:16;;;;;;;7.10;5.50;;;;;;;;;;107643;283;38573;-30
2023/04/13 03:33:51;;;;;;;7.20;5.20;;;;;;;;;;107595;281;39766;-30
2023/04/13 03:36:26;;;;;;;6.90;5.40;;;;;;;;;;107578;285;42892;-30
2023/04/13 03:39:00;;;;;;;6.50;5.20;;;;;;;;;;107656;283;42348;-30
2023/04/13 03:41:34;;;;;;;7.40;5.60;;;;;;;;;;107626;285;38787;-30
2023/04/13 03:44:11;;;;;;;6.90;5.50;;;;;;;;;;107662;283;39761;-30
2023/04/13 03:46:44;;;;;;;7.40;5.70;;;;;;;;;;107483;283;175737;-30
2023/04/13 03:49:23;;;;;;;7.00;5.40;;;;;;;;;;107620;285;43273;-30
2023/04/13 03:51:58;;;;;;;7.80;5.90;;;;;;;;;;107515;285;39921;-30
2023/04/13 03:54:34;;;;;;;7.00;5.70;;;;;;;;;;106873;278;894725;-30
2023/04/13 03:57:09;;;;;;;7.00;5.60;;;;;;;;;;107558;283;48901;-30
2023/04/13 03:59:43;;;;;;;8.30;6.30;;;;;;;;;;107537;286;41930;-30
2023/04/13 04:02:17;;;;;;;7.90;6.00;;;;;;;;;;107525;283;38820;-30
2023/04/13 04:04:51;;;;;;;7.20;6.00;;;;;;;;;;107557;285;39928;-30
2023/04/13 04:07:26;;;;;;;7.70;6.00;;;;;;;;;;107490;283;49690;-30
2023/04/13 04:10:00;;;;;;;7.40;5.90;;;;;;;;;;107538;285;41901;-30
2023/04/13 04:12:34;;;;;;;8.30;6.30;;;;;;;;;;107576;283;38818;-30
2023/04/13 04:15:10;;;;;;;7.50;5.90;;;;;;;;;;107561;283;39882;-31
2023/04/13 04:17:44;;;;;;;8.10;5.90;;;;;;;;;;107608;278;49131;-31
2023/04/13 04:20:21;;;;;;;7.20;5.90;;;;;;;;;;107536;283;42288;-31
2023/04/13 04:22:59;;;;;;;7.90;6.20;;;;;;;;;;107377;285;39214;-31
2023/04/13 04:25:35;;;;;;;7.40;5.80;;;;;;;;;;107525;285;39897;-31
2023/04/13 04:28:09;;;;;;;7.70;5.80;;;;;;;;;;107509;283;49127;-31
2023/04/13 04:30:52;;;;;;;7.50;6.00;;;;;;;;;;107565;282;42233;-31
2023/04/13 04:33:26;;;;;;;7.50;5.80;;;;;;;;;;107568;285;38823;-29
2023/04/13 04:36:00;;;;;;;7.60;6.30;;;;;;;;;;107533;287;39724;-29
2023/04/13 04:38:36;;;;;;;7.80;6.20;;;;;;;;;;107583;283;42845;-29
2023/04/13 04:41:12;;;;;;;7.60;6.10;;;;;;;;;;107608;283;42278;-29
2023/04/13 04:43:48;;;;;;;7.20;6.10;;;;;;;;;;107598;283;38558;-29
2023/04/13 04:46:24;;;;;;;8.00;6.00;;;;;;;;;;107562;285;39707;-29
2023/04/13 04:48:59;;;;;;;7.90;6.20;;;;;;;;;;107592;283;45266;-29
2023/04/13 04:51:34;;;;;;;7.50;6.10;;;;;;;;;;107639;277;42266;-29
2023/04/13 04:54:09;;;;;;;7.70;6.30;;;;;;;;;;107659;283;39854;-29
2023/04/13 04:56:42;;;;;;;7.80;6.00;;;;;;;;;;107613;283;39447;-29
2023/04/13 04:59:16;;;;;;;7.60;6.10;;;;;;;;;;107653;282;42953;-29
2023/04/13 05:01:51;;;;;;;7.60;6.20;;;;;;;;;;107612;285;44335;-30
2023/04/13 05:04:24;;;;;;;7.20;6.10;;;;;;;;;;107644;277;38768;-31
2023/04/13 05:06:58;;;;;;;7.70;6.10;;;;;;;;;;107597;283;39819;-31
2023/04/13 05:09:31;;;;;;;7.20;6.10;;;;;;;;;;107651;283;42899;-31
2023/04/13 05:12:06;;;;;;;7.30;5.90;;;;;;;;;;107594;283;42136;-31
2023/04/13 05:14:40;;;;;;;7.70;6.40;;;;;;;;;;107601;283;39167;-31
2023/04/13 05:17:17;;;;;;;8.00;6.10;;;;;;;;;;107588;283;39480;-29
2023/04/13 05:19:51;;;;;;;8.00;6.40;;;;;;;;;;107633;285;42913;-31
2023/04/13 05:22:26;;;;;;;7.50;6.00;;;;;;;;;;107622;283;43328;-30
2023/04/13 05:25:02;;;;;;;7.70;6.40;;;;;;;;;;107629;285;39981;-30
2023/04/13 05:27:37;;;;;;;6.90;5.80;;;;;;;;;;107595;283;40866;-30
2023/04/13 05:30:14;;;;;;;8.10;6.30;;;;;;;;;;107620;285;44062;-30
2023/04/13 05:32:48;;;;;;;7.50;6.60;;;;;;;;;;107675;283;43368;-30
2023/04/13 05:35:25;;;;;;;9.40;6.40;;;;;;;;;;107555;283;38842;-30
2023/04/13 05:38:00;;;;;;;8.00;6.50;;;;;;;;;;107602;285;40873;-30
2023/04/13 05:40:34;;;;;;;8.10;6.60;;;;;;;;;;107644;285;42634;-30
2023/04/13 05:43:08;;;;;;;7.80;6.60;;;;;;;;;;107646;283;43161;-30
2023/04/13 05:45:42;;;;;;;7.80;6.80;;;;;;;;;;107530;282;39011;-31
2023/04/13 05:48:15;;;;;;;8.30;6.90;;;;;;;;;;107583;282;40250;-31
2023/04/13 05:50:49;;;;;;;7.80;6.90;;;;;;;;;;107656;277;44094;-31
2023/04/13 05:53:22;;;;;;;8.50;6.60;;;;;;;;;;107697;277;42189;-30
2023/04/13 05:55:56;;;;;;;8.30;7.10;;;;;;;;;;107599;277;38556;-31
2023/04/13 05:58:30;;;;;;;8.40;6.70;;;;;;;;;;107576;277;40111;-31
2023/04/13 06:01:03;;;;;;;8.20;7.20;;;;;;;;;;107638;277;42876;-30
2023/04/13 06:03:37;;;;;;;8.60;6.90;;;;;;;;;;107679;284;43233;-31
2023/04/13 06:06:11;;;;;;;8.90;6.70;;;;;;;;;;107656;289;38978;-32
2023/04/13 06:08:44;;;;;;;8.50;6.30;;;;;;;;;;107560;277;39676;-32
2023/04/13 06:11:19;;;;;;;9.20;6.70;;;;;;;;;;107606;277;43321;-30
2023/04/13 06:13:55;;;;;;;9.50;6.60;;;;;;;;;;107472;277;42118;-30
2023/04/13 06:16:33;;;;;;;8.20;6.60;;;;;;;;;;107618;283;38899;-30
2023/04/13 06:19:08;;;;;;;8.90;6.90;;;;;;;;;;107615;284;39712;-30
2023/04/13 06:21:43;;;;;;;9.50;6.70;;;;;;;;;;107628;282;45377;-30
2023/04/13 06:24:17;;;;;;;7.90;6.50;;;;;;;;;;107641;280;43293;-30
2023/04/13 06:26:51;;;;;;;9.60;7.40;;;;;;;;;;107643;282;40052;-30
2023/04/13 06:29:24;;;;;;;10.80;7.20;;;;;;;;;;107617;277;39723;-30
2023/04/13 06:31:59;;;;;;;9.40;7.10;;;;;;;;;;107639;284;42880;-29
2023/04/13 06:34:34;;;;;;;9.90;7.20;;;;;;;;;;107626;282;42757;-29
2023/04/13 06:37:08;;;;;;;10.80;7.70;;;;;;;;;;107610;277;40911;-29
2023/04/13 06:39:42;;;;;;;10.30;7.50;;;;;;;;;;107484;282;39912;-29
2023/04/13 06:42:15;;;;;;;9.40;7.80;;;;;;;;;;107618;284;44026;-29
2023/04/13 06:44:49;;;;;;;10.40;7.70;;;;;;;;;;107626;284;42175;-30
2023/04/13 06:47:22;;;;;;;11.20;7.60;;;;;;;;;;107630;282;38792;-30
2023/04/13 06:49:56;;;;;;;10.10;7.50;;;;;;;;;;107612;282;39887;-30
2023/04/13 06:52:30;;;;;;;10.20;7.60;;;;;;;;;;107644;277;42638;-30
2023/04/13 06:55:04;;;;;;;10.20;7.80;;;;;;;;;;107636;282;42220;-30
2023/04/13 06:57:43;;;;;;;9.30;7.30;;;;;;;;;;107625;282;38775;-30
2023/04/13 07:00:19;;;;;;;9.90;7.70;;;;;;;;;;107590;284;39871;-30
2023/04/13 07:03:06;;;;;;;10.00;8.00;;;;;;;;;;107632;277;44038;-30
2023/04/13 07:05:43;;;;;;;10.80;8.30;;;;;;;;;;107730;284;42173;-30
2023/04/13 07:08:18;;;;;;;10.30;8.00;;;;;;;;;;107662;282;38820;-30
2023/04/13 07:10:56;;;;;;;11.40;8.40;;;;;;;;;;107639;277;39440;-30
2023/04/13 07:13:30;;;;;;;10.40;8.10;;;;;;;;;;107634;282;44183;-30
2023/04/13 07:16:07;;;;;;;9.70;8.00;;;;;;;;;;107676;284;42182;-30
2023/04/13 07:18:43;;;;;;;10.20;8.00;;;;;;;;;;107659;284;38841;-31
2023/04/13 07:21:20;;;;;;;10.80;8.00;;;;;;;;;;107540;283;175341;-30
2023/04/13 07:23:54;;;;;;;10.00;8.10;;;;;;;;;;107678;284;43058;-30
2023/04/13 07:26:29;;;;;;;10.10;8.20;;;;;;;;;;107672;277;42202;-30
2023/04/13 07:29:11;;;;;;;10.10;8.10;;;;;;;;;;107650;277;39916;-30
2023/04/13 07:31:48;;;;;;;10.20;8.40;;;;;;;;;;107662;282;47812;-30
2023/04/13 07:34:25;;;;;;;9.60;7.90;;;;;;;;;;107546;277;175605;-30
2023/04/13 07:37:00;;;;;;;10.90;8.40;;;;;;;;;;107683;282;43262;-30
2023/04/13 07:39:35;;;;;;;9.50;7.60;;;;;;;;;;107662;277;39904;-30
2023/04/13 07:42:14;;;;;;;10.30;7.80;;;;;;;;;;107649;277;45900;-30
2023/04/13 07:44:51;;;;;;;9.30;7.70;;;;;;;;;;107650;282;42906;-30
2023/04/13 07:47:27;;;;;;;8.70;7.60;;;;;;;;;;106996;277;894384;-30
2023/04/13 07:50:05;;;;;;;9.10;7.60;;;;;;;;;;107603;277;39908;-29
2023/04/13 07:52:40;;;;;;;9.50;7.60;;;;;;;;;;107661;284;40955;-29
2023/04/13 07:55:15;;;;;;;9.20;7.50;;;;;;;;;;107667;277;44093;-29
2023/04/13 07:57:51;;;;;;;10.00;8.10;;;;;;;;;;107652;284;42484;-29
2023/04/13 08:00:28;;;;;;;8.60;7.30;;;;;;;;;;107601;277;39791;-29
2023/04/13 08:03:02;;;;;;;8.60;7.50;;;;;;;;;;107649;282;39712;-29
2023/04/13 08:05:42;;;;;;;9.50;7.80;;;;;;;;;;107666;277;42670;-31
2023/04/13 08:08:21;;;;;;;8.90;7.60;;;;;;;;;;107637;284;42472;-31
2023/04/13 08:10:59;;;;;;;8.80;7.70;;;;;;;;;;107639;277;39907;-30
2023/04/13 08:13:35;;;;;;;9.10;7.70;;;;;;;;;;107635;282;40870;-30
2023/04/13 08:16:11;;;;;;;8.90;7.90;;;;;;;;;;107652;282;42898;-30
2023/04/13 08:18:47;;;;;;;8.80;7.70;;;;;;;;;;107655;284;42615;-30
2023/04/13 08:21:25;;;;;;;9.20;7.60;;;;;;;;;;107631;277;39910;-30
2023/04/13 08:24:01;;;;;;;9.40;7.60;;;;;;;;;;107626;284;41043;-30
2023/04/13 08:26:36;;;;;;;9.10;7.60;;;;;;;;;;107647;284;42963;-30
2023/04/13 08:29:10;;;;;;;9.30;7.80;;;;;;;;;;107652;284;42267;-30
2023/04/13 08:31:47;;;;;;;9.20;7.80;;;;;;;;;;107595;282;39869;-30
2023/04/13 08:34:23;;;;;;;8.80;7.40;;;;;;;;;;107659;283;39726;-30
2023/04/13 08:37:01;;;;;;;8.30;7.30;;;;;;;;;;107623;277;44378;-30
2023/04/13 08:39:35;;;;;;;8.50;7.10;;;;;;;;;;107613;277;41921;-30
2023/04/13 08:42:12;;;;;;;7.90;7.00;;;;;;;;;;107601;277;39831;-30
2023/04/13 08:44:49;;;;;;;8.80;7.50;;;;;;;;;;107651;282;39502;-30
2023/04/13 08:47:24;;;;;;;9.40;7.40;;;;;;;;;;107631;282;42814;-30
2023/04/13 08:50:03;;;;;;;8.90;7.40;;;;;;;;;;107635;283;43512;-30
2023/04/13 08:52:40;;;;;;;8.70;7.00;;;;;;;;;;107642;277;38750;-30
2023/04/13 08:55:16;;;;;;;8.00;7.00;;;;;;;;;;107623;277;40010;-30
2023/04/13 08:57:51;;;;;;;8.10;7.30;;;;;;;;;;107617;277;42935;-30
2023/04/13 09:00:28;;;;;;;8.80;7.10;;;;;;;;;;107638;277;42174;-30
2023/04/13 09:03:13;;;;;;;9.40;7.30;;;;;;;;;;107384;283;175627;-32
2023/04/13 09:05:52;;;;;;;8.40;7.20;;;;;;;;;;107591;284;40860;-33
2023/04/13 09:08:33;;;;;;;9.00;7.50;;;;;;;;;;107663;277;44104;-32
2023/04/13 09:11:10;;;;;;;8.20;7.20;;;;;;;;;;107605;282;42268;-32
2023/04/13 09:13:52;;;;;;;8.80;7.40;;;;;;;;;;107589;277;38997;-31
2023/04/13 09:16:26;;;;;;;8.40;7.00;;;;;;;;;;107660;282;40936;-30
2023/04/13 09:19:00;;;;;;;9.10;7.10;;;;;;;;;;107622;277;44316;-30
2023/04/13 09:21:43;;;;;;;8.20;7.30;;;;;;;;;;107608;282;43637;-30
2023/04/13 09:24:19;;;;;;;8.10;7.20;;;;;;;;;;107582;277;45609;-30
2023/04/13 09:26:54;;;;;;;8.20;6.90;;;;;;;;;;107607;277;40845;-30
2023/04/13 09:29:28;;;;;;;8.20;6.70;;;;;;;;;;107637;282;43997;-30
2023/04/13 09:32:06;;;;;;;8.10;6.60;;;;;;;;;;107647;277;42201;-30
2023/04/13 09:34:40;;;;;;;8.30;6.90;;;;;;;;;;107594;277;46038;-30
2023/04/13 09:37:17;;;;;;;8.80;6.60;;;;;;;;;;107630;277;39705;-30
2023/04/13 09:39:54;;;;;;;8.50;7.00;;;;;;;;;;107342;277;318010;-30
2023/04/13 09:42:28;;;;;;;8.70;6.80;;;;;;;;;;107614;280;42315;-30
2023/04/13 09:45:03;;;;;;;8.00;6.50;;;;;;;;;;107622;277;38923;-30
2023/04/13 09:47:41;;;;;;;7.80;6.60;;;;;;;;;;107665;285;39822;-31
2023/04/13 09:50:25;;;;;;;7.90;6.40;;;;;;;;;;107639;285;44997;-30
2023/04/13 09:53:09;;;;;;;7.90;6.60;;;;;;;;;;107574;277;43580;-30
2023/04/13 09:55:46;;;;;;;7.70;6.60;;;;;;;;;;107618;277;39899;-31
2023/04/13 09:58:19;;;;;;;8.00;6.40;;;;;;;;;;107626;284;40889;-30
2023/04/13 10:00:56;;;;;;;8.40;6.90;;;;;;;;;;107651;284;43157;-31
2023/04/13 10:03:33;;;;;;;8.30;6.20;;;;;;;;;;107556;277;42506;-31
2023/04/13 10:06:10;;;;;;;8.10;6.40;;;;;;;;;;107591;277;38846;-31
2023/04/13 10:08:45;;;;;;;7.10;6.20;;;;;;;;;;107620;282;39541;-31
2023/04/13 10:11:19;;;;;;;7.80;6.30;;;;;;;;;;107628;277;42966;-31
2023/04/13 10:14:01;;;;;;;8.40;6.20;;;;;;;;;;107576;282;42200;-31
2023/04/13 10:17:03;;;;;;;7.50;6.10;;;;;;;;;;107629;282;38832;-30
2023/04/13 10:19:41;;;;;;;7.40;6.20;;;;;;;;;;107606;284;39480;-32
2023/04/13 10:22:21;;;;;;;7.80;6.40;;;;;;;;;;107606;277;42894;-30
2023/04/13 10:24:57;;;;;;;7.20;6.00;;;;;;;;;;107601;277;42165;-31
2023/04/13 10:27:35;;;;;;;7.30;6.10;;;;;;;;;;107625;280;38774;-31
2023/04/13 10:30:22;;;;;;;7.00;6.00;;;;;;;;;;107637;277;40021;-30
2023/04/13 10:33:07;;;;;;;7.50;6.00;;;;;;;;;;107521;284;177342;-30
2023/04/13 10:35:42;;;;;;;7.10;5.90;;;;;;;;;;107597;282;42072;-30
2023/04/13 10:38:16;;;;;;;7.10;5.80;;;;;;;;;;107631;277;38844;-30
2023/04/13 10:40:54;;;;;;;7.10;6.10;;;;;;;;;;107614;284;39734;-32
2023/04/13 10:43:35;;;;;;;7.80;6.20;;;;;;;;;;107582;277;42883;-32
2023/04/13 10:46:12;;;;;;;7.20;5.80;;;;;;;;;;107608;277;47833;-31
2023/04/13 10:48:58;;;;;;;6.80;5.90;;;;;;;;;;107612;277;38631;-31
2023/04/13 10:51:43;;;;;;;7.00;5.70;;;;;;;;;;107655;277;39680;-31
2023/04/13 10:54:18;;;;;;;6.50;5.80;;;;;;;;;;107627;284;42853;-31
2023/04/13 10:57:01;;;;;;;6.80;5.70;;;;;;;;;;107633;284;43746;-31
2023/04/13 10:59:52;;;;;;;7.20;5.70;;;;;;;;;;107703;277;40078;-31
2023/04/13 11:02:34;;;;;;;6.80;5.90;;;;;;;;;;107661;284;41392;-31
2023/04/13 11:05:16;;;;;;;6.80;5.50;;;;;;;;;;107576;277;43887;-31
2023/04/13 11:07:52;;;;;;;7.30;6.10;;;;;;;;;;107667;277;43245;-31
2023/04/13 11:10:31;;;;;;;7.20;5.90;;;;;;;;;;107662;277;38771;-31
2023/04/13 11:13:07;;;;;;;6.80;5.70;;;;;;;;;;107533;277;175586;-31
2023/04/13 11:15:42;;;;;;;6.20;5.40;;;;;;;;;;107615;277;42865;-30
2023/04/13 11:18:26;;;;;;;7.10;6.10;;;;;;;;;;107661;277;43274;-30
2023/04/13 11:21:01;;;;;;;7.70;5.90;;;;;;;;;;107681;277;38823;-31
2023/04/13 11:23:40;;;;;;;7.20;5.90;;;;;;;;;;107644;277;39661;-31
2023/04/13 11:26:13;;;;;;;6.90;5.80;;;;;;;;;;107609;284;42886;-31
2023/04/13 11:28:52;;;;;;;6.70;5.70;;;;;;;;;;107642;284;42158;-31
2023/04/13 11:31:37;;;;;;;7.10;5.90;;;;;;;;;;107629;284;38953;-31
2023/04/13 11:34:12;;;;;;;7.10;5.50;;;;;;;;;;107624;277;40045;-31
2023/04/13 11:36:50;;;;;;;7.20;5.50;;;;;;;;;;107594;277;43010;-31
2023/04/13 11:39:27;;;;;;;6.30;5.60;;;;;;;;;;107619;277;42166;-31
2023/04/13 11:42:08;;;;;;;6.70;5.90;;;;;;;;;;107623;277;38763;-31
2023/04/13 11:44:45;;;;;;;6.50;5.30;;;;;;;;;;107622;277;39833;-31
2023/04/13 11:47:21;;;;;;;6.70;5.60;;;;;;;;;;107582;282;44685;-31
2023/04/13 11:49:57;;;;;;;6.60;5.50;;;;;;;;;;107521;284;195434;-31
2023/04/13 11:52:34;;;;;;;6.90;5.60;;;;;;;;;;107616;277;38937;-31
2023/04/13 11:55:10;;;;;;;6.50;5.40;;;;;;;;;;107630;277;39739;-31
2023/04/13 11:57:58;;;;;;;6.40;5.20;;;;;;;;;;107549;289;49825;-31
2023/04/13 12:00:33;;;;;;;6.70;5.40;;;;;;;;;;107640;280;42199;-30
2023/04/13 12:03:14;;;;;;;6.70;5.60;;;;;;;;;;107640;282;38760;-31
2023/04/13 12:06:09;;;;;;;7.00;5.50;;;;;;;;;;107594;282;40495;-31
2023/04/13 12:08:43;;;;;;;6.30;5.50;;;;;;;;;;107656;277;42858;-31
2023/04/13 12:11:23;;;;;;;6.40;5.20;;;;;;;;;;107615;282;43356;-31
2023/04/13 12:14:23;;;;;;;;;;;;;;;;;;107655;282;40126;-31
2023/04/13 12:17:17;;;;;;;6.70;5.10;;;;;;;;;;107597;277;42079;-32
2023/04/13 12:20:16;;;;;;;6.20;5.20;;;;;;;;;;107628;284;43101;-32
2023/04/13 12:22:55;;;;;;;7.00;5.50;;;;;;;;;;107661;282;42104;-31
2023/04/13 12:25:56;;;;;;;6.60;5.80;;;;;;;;;;107635;277;38802;-31
2023/04/13 12:28:34;;;;;;;6.80;5.80;;;;;;;;;;107619;284;39735;-31
2023/04/13 12:31:11;;;;;;;6.60;5.70;;;;;;;;;;107630;284;44064;-31
2023/04/13 12:33:45;;;;;;;7.00;5.80;;;;;;;;;;107642;284;43158;-31
2023/04/13 12:36:19;;;;;;;6.80;5.80;;;;;;;;;;107617;277;39092;-31
2023/04/13 12:38:54;;;;;;;7.30;5.70;;;;;;;;;;107702;276;45048;-31
2023/04/13 12:41:28;;;;;;;6.30;5.50;;;;;;;;;;107623;277;44309;-31
2023/04/13 12:44:06;;;;;;;6.60;5.50;;;;;;;;;;107636;284;43472;-31
2023/04/13 12:46:41;;;;;;;6.90;5.60;;;;;;;;;;107621;282;38773;-31
2023/04/13 12:49:15;;;;;;;6.40;5.60;;;;;;;;;;107575;277;45696;-31
2023/04/13 12:51:50;;;;;;;6.70;5.50;;;;;;;;;;107621;277;43138;-31
2023/04/13 12:54:24;;;;;;;6.40;5.60;;;;;;;;;;107638;282;44335;-32
2023/04/13 12:57:00;;;;;;;5.90;5.10;;;;;;;;;;107614;282;39182;-30
2023/04/13 12:59:35;;;;;;;7.00;5.50;;;;;;;;;;107610;282;45586;-31
2023/04/13 13:02:11;;;;;;;6.00;5.30;;;;;;;;;;107615;282;43001;-31
2023/04/13 13:04:45;;;;;;;7.40;5.70;;;;;;;;;;107624;277;43180;-32
2023/04/13 13:07:21;;;;;;;7.20;5.50;;;;;;;;;;107654;282;38867;-32
2023/04/13 13:09:59;;;;;;;6.80;5.50;;;;;;;;;;107585;277;45411;-31
2023/04/13 13:12:36;;;;;;;6.70;5.50;;;;;;;;;;107633;277;42898;-30
2023/04/13 13:15:13;;;;;;;6.10;5.30;;;;;;;;;;107643;277;42227;-31
2023/04/13 13:17:47;;;;;;;6.40;5.50;;;;;;;;;;107638;282;38800;-31
2023/04/13 13:20:21;;;;;;;6.50;5.30;;;;;;;;;;107611;284;46973;-31
2023/04/13 13:22:55;;;;;;;6.60;5.40;;;;;;;;;;107645;277;45566;-31
2023/04/13 13:25:31;;;;;;;6.50;5.30;;;;;;;;;;107625;277;42243;-31
2023/04/13 13:28:08;;;;;;;6.50;5.40;;;;;;;;;;106925;277;892536;-30
2023/04/13 13:30:48;;;;;;;6.40;5.50;;;;;;;;;;107604;277;46126;-31
2023/04/13 13:33:23;;;;;;;6.30;5.20;;;;;;;;;;107626;284;45277;-31
2023/04/13 13:35:56;;;;;;;6.20;5.30;;;;;;;;;;107638;277;42142;-31
2023/04/13 13:38:31;;;;;;;6.00;5.10;;;;;;;;;;107625;284;38596;-31
2023/04/13 13:41:08;;;;;;;6.30;5.10;;;;;;;;;;107635;277;46938;-31
2023/04/13 13:43:42;;;;;;;6.40;5.40;;;;;;;;;;107616;277;43041;-31
2023/04/13 13:46:17;;;;;;;6.30;5.00;;;;;;;;;;107644;277;42746;-31
2023/04/13 13:48:52;;;;;;;6.00;5.00;;;;;;;;;;107641;282;38836;-31
2023/04/13 13:51:27;;;;;;;6.00;5.10;;;;;;;;;;107602;277;46906;-30
2023/04/13 13:54:01;;;;;;;6.30;5.00;;;;;;;;;;107538;277;175592;-29
2023/04/13 13:56:36;;;;;;;6.30;5.00;;;;;;;;;;107623;277;43645;-30
2023/04/13 13:59:10;;;;;;;6.10;5.10;;;;;;;;;;107520;282;39073;-30
2023/04/13 14:01:47;;;;;;;5.80;4.80;;;;;;;;;;107585;282;47284;-30
2023/04/13 14:04:22;;;;;;;5.80;5.00;;;;;;;;;;107603;281;42898;-31
2023/04/13 14:06:58;;;;;;;5.80;4.60;;;;;;;;;;107634;277;42160;-31
2023/04/13 14:09:32;;;;;;;6.40;5.10;;;;;;;;;;107557;277;38746;-31
2023/04/13 14:12:08;;;;;;;5.70;4.50;;;;;;;;;;106966;282;893558;-31
2023/04/13 14:14:41;;;;;;;6.30;4.80;;;;;;;;;;107635;276;43013;-31
2023/04/13 14:17:15;;;;;;;6.30;4.80;;;;;;;;;;107646;282;41913;-32
2023/04/13 14:19:50;;;;;;;5.90;4.90;;;;;;;;;;107583;277;38786;-31
2023/04/13 14:22:23;;;;;;;6.30;5.00;;;;;;;;;;107671;277;40846;-31
2023/04/13 14:24:58;;;;;;;6.10;4.80;;;;;;;;;;107477;282;175541;-30
2023/04/13 14:27:36;;;;;;;6.40;4.90;;;;;;;;;;107684;284;43713;-31
2023/04/13 14:30:16;;;;;;;6.20;4.80;;;;;;;;;;107659;282;39896;-31
2023/04/13 14:32:52;;;;;;;6.30;4.60;;;;;;;;;;107605;282;39682;-30
2023/04/13 14:35:27;;;;;;;5.90;4.60;;;;;;;;;;107758;284;44188;-30
2023/04/13 14:38:02;;;;;;;6.10;4.80;;;;;;;;;;107702;284;43468;-32
2023/04/13 14:40:36;;;;;;;5.80;4.50;;;;;;;;;;107585;277;38759;-31
2023/04/13 14:43:10;;;;;;;5.90;4.60;;;;;;;;;;107612;282;39997;-31
2023/04/13 14:45:44;;;;;;;5.90;4.40;;;;;;;;;;107636;283;45146;-30
2023/04/13 14:48:17;;;;;;;6.10;4.40;;;;;;;;;;107617;282;43940;-31
2023/04/13 14:50:53;;;;;;;6.10;4.80;;;;;;;;;;107577;284;38821;-31
2023/04/13 14:53:27;;;;;;;6.10;4.70;;;;;;;;;;107587;277;39866;-31
2023/04/13 14:56:04;;;;;;;6.30;4.50;;;;;;;;;;107613;281;42763;-31
2023/04/13 14:58:38;;;;;;;5.40;4.30;;;;;;;;;;107595;276;41904;-31
2023/04/13 15:01:20;;;;;;;5.60;4.20;;;;;;;;;;107581;277;38976;-31
2023/04/13 15:03:55;;;;;;;5.60;4.20;;;;;;;;;;107646;276;39647;-30
2023/04/13 15:06:30;;;;;;;6.00;4.70;;;;;;;;;;107663;282;44167;-31
2023/04/13 15:09:05;;;;;;;5.50;4.40;;;;;;;;;;107646;277;42375;-31
2023/04/13 15:11:39;;;;;;;5.80;4.40;;;;;;;;;;107619;285;39987;-32
2023/04/13 15:14:13;;;;;;;6.40;4.70;;;;;;;;;;107697;281;39739;-31
2023/04/13 15:16:46;;;;;;;6.90;4.40;;;;;;;;;;107622;277;43008;-31
2023/04/13 15:19:20;;;;;;;6.00;4.20;;;;;;;;;;107671;276;42487;-31
2023/04/13 15:21:54;;;;;;;5.70;4.40;;;;;;;;;;107649;276;39043;-31
2023/04/13 15:24:27;;;;;;;5.40;4.00;;;;;;;;;;107508;282;175221;-31
2023/04/13 15:27:01;;;;;;;5.60;4.20;;;;;;;;;;107658;277;44056;-31
2023/04/13 15:29:35;;;;;;;5.30;4.10;;;;;;;;;;107644;283;42014;-31
2023/04/13 15:32:09;;;;;;;6.10;4.10;;;;;;;;;;107628;282;39027;-31
2023/04/13 15:34:43;;;;;;;5.50;4.00;;;;;;;;;;107641;276;39777;-31
2023/04/13 15:37:16;;;;;;;4.90;3.80;;;;;;;;;;107532;276;196138;-30